Time;durP1;ratioP1;P1;durP2;ratioP2;P2;SDS_P1;SDS_P2;PMS_P1;PMS_P2;Temp;Humidity;BMP_temperature;BMP_pressure;BME280_temperature;BME280_humidity;BME280_pressure;Samples;Min_cycle;Max_cycle;Signal;HPM_P1;HPM_P2
2023/08/20 00:00:27;;;;;;;;;1.00;1.00;;;;;22.20;84.84;101880.13;5078993;27;45415;-73
2023/08/20 00:03:04;;;;;;;;;2.00;0.00;;;;;22.15;85.27;101870.69;5070976;27;47331;-73
2023/08/20 00:05:30;;;;;;;;;0.33;0.33;;;;;22.19;83.86;101885.59;5082133;27;45344;-73
2023/08/20 00:07:55;;;;;;;;;1.00;1.00;;;;;22.17;82.51;101888.44;5077389;27;45248;-74
2023/08/20 00:10:21;;;;;;;;;2.33;1.67;;;;;22.05;82.46;101864.28;5082165;27;45514;-73
2023/08/20 00:12:46;;;;;;;;;0.33;0.00;;;;;22.13;82.94;101895.03;5079137;27;51216;-73
2023/08/20 00:15:11;;;;;;;;;2.00;1.00;;;;;22.10;83.43;101892.59;5079438;27;45903;-73
2023/08/20 00:17:39;;;;;;;;;2.00;0.00;;;;;22.12;83.33;101892.47;5092773;27;45388;-74
2023/08/20 00:20:12;;;;;;;;;2.00;1.00;;;;;22.10;83.56;101892.59;5096690;27;45556;-73
2023/08/20 00:22:39;;;;;;;;;1.00;1.00;;;;;22.00;83.92;101890.72;5082607;27;46296;-73
2023/08/20 00:25:06;;;;;;;;;1.00;1.00;;;;;22.00;82.99;101886.19;5077207;27;45399;-73
2023/08/20 00:27:32;;;;;;;;;1.00;1.00;;;;;22.04;83.00;101890.38;5084123;27;45244;-73
2023/08/20 00:29:58;;;;;;;;;1.00;1.00;;;;;22.04;83.63;101893.06;5082841;27;45639;-73
2023/08/20 00:32:23;;;;;;;;;1.00;1.00;;;;;22.04;84.64;101894.91;5077528;27;47135;-72
2023/08/20 00:34:48;;;;;;;;;2.00;0.00;;;;;22.00;85.70;101896.09;5089207;27;48410;-73
2023/08/20 00:37:14;;;;;;;;;2.00;0.33;;;;;21.93;82.95;101886.78;5082801;27;45206;-73
2023/08/20 00:39:40;;;;;;;;;1.00;1.00;;;;;21.99;83.25;101897.13;5084740;27;45507;-73
2023/08/20 00:42:07;;;;;;;;;1.00;1.00;;;;;21.97;83.64;101894.53;5099474;27;48416;-72
2023/08/20 00:44:33;;;;;;;;;1.00;1.00;;;;;21.93;83.34;101884.94;5074880;28;45445;-73
2023/08/20 00:47:00;;;;;;;;;1.00;1.00;;;;;21.95;84.00;101893.78;5087051;27;45536;-73
2023/08/20 00:49:25;;;;;;;;;1.67;1.00;;;;;21.95;84.57;101898.31;5088677;27;45360;-73
2023/08/20 00:51:52;;;;;;;;;1.33;1.33;;;;;21.91;83.70;101895.00;5097307;27;45496;-73
2023/08/20 00:54:17;;;;;;;;;2.00;1.67;;;;;21.88;84.85;101889.81;5093034;27;45405;-73
2023/08/20 00:56:44;;;;;;;;;1.00;1.00;;;;;21.90;85.49;101897.78;5077700;27;45385;-73
2023/08/20 00:59:10;;;;;;;;;0.67;0.67;;;;;21.77;86.80;101893.34;5082752;27;45349;-73
2023/08/20 01:01:36;;;;;;;;;1.00;0.00;;;;;21.82;87.83;101899.22;5093055;27;45281;-73
2023/08/20 01:04:01;;;;;;;;;1.00;1.00;;;;;21.79;88.80;101899.44;5078591;27;45486;-73
2023/08/20 01:06:49;;;;;;;;;2.00;1.00;;;;;21.75;87.58;101906.06;5085155;27;45439;-74
2023/08/20 01:09:46;;;;;;;;;1.00;0.00;;;;;21.71;87.88;101904.56;5078686;27;45371;-73
2023/08/20 01:12:13;;;;;;;;;4.00;1.00;;;;;21.60;86.18;101892.88;5081978;28;46310;-74
2023/08/20 01:14:39;;;;;;;;;0.67;0.67;;;;;21.61;87.51;101900.88;5082555;27;45670;-73
2023/08/20 01:17:04;;;;;;;;;2.67;1.00;;;;;21.67;88.60;101913.00;5095579;27;45447;-73
2023/08/20 01:19:30;;;;;;;;;1.33;1.33;;;;;21.63;88.61;101904.28;5093562;27;45604;-73
2023/08/20 01:22:13;;;;;;;;;2.00;1.00;;;;;21.63;88.50;101906.97;5081266;27;46196;-72
2023/08/20 01:24:56;;;;;;;;;2.33;1.67;;;;;21.58;88.94;101903.78;5090019;27;45338;-73
2023/08/20 01:27:48;;;;;;;;;2.00;2.00;;;;;21.58;89.09;101911.88;5086574;27;45347;-73
2023/08/20 01:30:15;;;;;;;;;3.00;2.00;;;;;21.53;89.78;101903.25;5087601;27;45418;-73
2023/08/20 01:32:41;;;;;;;;;2.00;1.33;;;;;21.51;90.28;101913.31;5080207;27;48131;-74
2023/08/20 01:35:12;;;;;;;;;2.00;1.67;;;;;21.50;90.84;101916.97;5087514;27;45261;-75
2023/08/20 01:37:37;;;;;;;;;0.33;0.00;;;;;21.43;90.51;101915.72;5082819;27;45545;-73
2023/08/20 01:40:03;;;;;;;;;3.00;1.00;;;;;21.37;91.30;101909.94;5088674;27;51118;-73
2023/08/20 01:42:29;;;;;;;;;0.33;0.33;;;;;21.42;91.50;101923.91;5073044;27;48060;-73
2023/08/20 01:44:54;;;;;;;;;1.00;1.00;;;;;21.41;89.39;101919.47;5086694;27;45352;-73
2023/08/20 01:47:19;;;;;;;;;1.00;1.00;;;;;21.35;91.42;101910.03;5081263;27;49589;-73
2023/08/20 01:49:45;;;;;;;;;1.00;1.00;;;;;21.30;91.48;101906.84;5072693;27;48126;-75
2023/08/20 01:52:10;;;;;;;;;1.33;1.33;;;;;21.31;89.71;101905.84;5092418;27;46674;-75
2023/08/20 01:54:36;;;;;;;;;2.00;2.00;;;;;21.32;90.63;101904.03;5085187;27;56900;-76
2023/08/20 01:57:01;;;;;;;;;2.00;1.00;;;;;21.29;89.69;101903.28;5083797;27;46613;-76
2023/08/20 01:59:26;;;;;;;;;1.00;1.00;;;;;21.20;90.76;101898.56;5085223;27;50218;-75
2023/08/20 02:01:51;;;;;;;;;2.00;1.00;;;;;21.25;91.87;101909.00;5069977;28;47078;-73
2023/08/20 02:04:17;;;;;;;;;1.00;1.00;;;;;21.21;92.37;101911.06;5082351;27;54283;-73
2023/08/20 02:06:42;;;;;;;;;3.00;1.33;;;;;21.08;94.02;101899.47;5067095;27;49936;-73
2023/08/20 02:09:07;;;;;;;;;2.00;2.00;;;;;21.11;90.35;101904.63;5085942;27;45542;-73
2023/08/20 02:11:35;;;;;;;;;4.00;2.00;;;;;21.13;91.90;101918.00;5092351;27;45659;-73
2023/08/20 02:14:01;;;;;;;;;1.00;1.00;;;;;21.03;92.90;101896.25;5090990;27;45432;-73
2023/08/20 02:16:27;;;;;;;;;1.00;1.00;;;;;21.05;94.55;101905.06;5080922;27;45525;-73
2023/08/20 02:18:52;;;;;;;;;3.67;2.00;;;;;21.06;92.86;101911.31;5089474;27;45557;-73
2023/08/20 02:21:17;;;;;;;;;2.00;2.00;;;;;21.06;93.86;101919.38;5081480;27;45316;-73
2023/08/20 02:23:42;;;;;;;;;2.00;1.00;;;;;21.08;93.99;101914.72;5074337;27;46282;-72
2023/08/20 02:26:08;;;;;;;;;3.67;2.00;;;;;21.07;92.21;101924.63;5085582;27;45352;-73
2023/08/20 02:28:34;;;;;;;;;1.00;1.00;;;;;21.03;93.83;101920.47;5100514;27;45371;-73
2023/08/20 02:31:04;;;;;;;;;0.67;0.67;;;;;21.02;94.90;101921.44;5088337;27;45504;-74
2023/08/20 02:33:29;;;;;;;;;1.00;1.00;;;;;21.00;95.25;101925.22;5098959;27;45557;-74
2023/08/20 02:35:55;;;;;;;;;2.33;1.00;;;;;20.94;94.40;101917.59;5090572;27;45434;-73
2023/08/20 02:38:20;;;;;;;;;3.00;1.00;;;;;20.87;95.56;101908.25;5092463;27;45307;-73
2023/08/20 02:40:45;;;;;;;;;3.67;2.67;;;;;20.89;96.29;101908.97;5089821;27;45377;-73
2023/08/20 02:43:11;;;;;;;;;3.00;1.67;;;;;20.79;96.59;101896.22;5081366;27;45307;-73
2023/08/20 02:45:41;;;;;;;;;2.67;1.33;;;;;20.83;96.20;101906.75;5087454;27;45561;-73
2023/08/20 02:48:07;;;;;;;;;1.00;1.00;;;;;20.79;96.62;101904.28;5079668;28;45351;-74
2023/08/20 02:50:32;;;;;;;;;3.00;3.00;;;;;20.81;94.49;101903.31;5071989;27;45747;-73
2023/08/20 02:52:58;;;;;;;;;2.00;1.00;;;;;20.75;96.19;101891.16;5086356;27;45230;-73
2023/08/20 02:55:23;;;;;;;;;1.00;0.00;;;;;20.74;95.93;101892.16;5084618;27;45324;-73
2023/08/20 02:57:48;;;;;;;;;2.00;1.00;;;;;20.74;96.16;101906.44;5095972;27;45522;-73
2023/08/20 03:00:14;;;;;;;;;2.67;2.00;;;;;20.76;94.16;101912.56;5087625;27;47482;-74
2023/08/20 03:02:41;;;;;;;;;4.00;3.00;;;;;20.74;96.14;101908.28;5091931;27;45285;-73
2023/08/20 03:05:07;;;;;;;;;2.00;1.00;;;;;20.73;96.26;101909.25;5084895;27;45411;-73
2023/08/20 03:07:33;;;;;;;;;0.67;0.67;;;;;20.66;96.47;101902.56;5082280;27;45356;-73
2023/08/20 03:09:58;;;;;;;;;3.67;1.00;;;;;20.63;97.99;101903.66;5087901;27;46301;-73
2023/08/20 03:12:23;;;;;;;;;1.67;1.00;;;;;20.59;98.45;101899.47;5098212;27;52967;-73
2023/08/20 03:14:49;;;;;;;;;2.33;1.00;;;;;20.64;97.03;101908.09;5086324;27;51617;-74
2023/08/20 03:17:14;;;;;;;;;2.00;1.00;;;;;20.63;97.67;101905.50;5082625;27;45297;-74
2023/08/20 03:19:59;;;;;;;;;1.67;1.67;;;;;20.62;98.64;101903.75;5080749;27;45497;-74
2023/08/20 03:22:26;;;;;;;;;2.67;2.00;;;;;20.52;99.95;101889.25;5078538;27;45361;-73
2023/08/20 03:24:52;;;;;;;;;1.00;1.00;;;;;20.59;99.72;101903.97;5082069;27;45423;-74
2023/08/20 03:27:18;;;;;;;;;2.33;1.00;;;;;20.52;99.96;101900.00;5091245;27;45521;-73
2023/08/20 03:29:44;;;;;;;;;1.00;1.00;;;;;20.46;100.00;101895.06;5086607;27;45490;-73
2023/08/20 03:32:10;;;;;;;;;2.00;2.00;;;;;20.53;98.91;101907.13;5064565;28;45624;-73
2023/08/20 03:34:35;;;;;;;;;5.67;1.33;;;;;20.53;100.00;101912.50;5093329;27;45272;-73
2023/08/20 03:37:02;;;;;;;;;1.00;0.00;;;;;20.47;100.00;101905.72;5070866;27;45537;-73
2023/08/20 03:39:27;;;;;;;;;7.00;2.00;;;;;20.49;100.00;101905.59;5080257;27;45393;-73
2023/08/20 03:41:53;;;;;;;;;2.00;2.00;;;;;20.45;100.00;101915.72;5070087;28;45382;-73
2023/08/20 03:44:19;;;;;;;;;1.00;1.00;;;;;20.37;100.00;101891.22;5085906;27;45498;-73
2023/08/20 03:46:44;;;;;;;;;2.00;2.00;;;;;20.37;100.00;101893.06;5094681;27;45341;-73
2023/08/20 03:49:10;;;;;;;;;4.33;2.00;;;;;20.38;100.00;101903.69;5079042;27;45776;-73
2023/08/20 03:51:35;;;;;;;;;1.33;1.00;;;;;20.41;100.00;101906.16;5079939;27;45438;-73
2023/08/20 03:54:00;;;;;;;;;1.00;1.00;;;;;20.40;99.87;101907.13;5062549;28;45429;-73
2023/08/20 03:56:26;;;;;;;;;2.00;2.00;;;;;20.33;100.00;101903.16;5077026;28;45354;-73
2023/08/20 03:58:52;;;;;;;;;1.00;1.00;;;;;20.40;100.00;101923.25;5080771;27;45394;-72
2023/08/20 04:01:18;;;;;;;;;3.00;1.00;;;;;20.33;100.00;101916.59;5089739;27;45296;-74
2023/08/20 04:03:43;;;;;;;;;2.00;1.00;;;;;20.35;100.00;101932.63;5083096;27;46259;-74
2023/08/20 04:06:08;;;;;;;;;2.33;2.33;;;;;20.34;100.00;101928.19;5080343;27;45276;-73
2023/08/20 04:08:34;;;;;;;;;3.00;2.00;;;;;20.31;100.00;101940.03;5084606;27;46171;-74
2023/08/20 04:10:59;;;;;;;;;3.00;1.00;;;;;20.31;100.00;101928.41;5089053;27;45323;-73
2023/08/20 04:13:24;;;;;;;;;2.00;2.00;;;;;20.24;100.00;101927.94;5085040;27;45481;-73
2023/08/20 04:15:51;;;;;;;;;1.33;1.00;;;;;20.23;100.00;101919.03;5077479;27;45429;-73
2023/08/20 04:18:16;;;;;;;;;2.33;2.33;;;;;20.24;100.00;101944.94;5081113;27;45613;-73
2023/08/20 04:20:42;;;;;;;;;2.00;2.00;;;;;20.22;100.00;101935.28;5066403;27;45505;-73
2023/08/20 04:23:07;;;;;;;;;2.33;1.00;;;;;20.25;100.00;101935.88;5091441;27;45418;-73
2023/08/20 04:25:32;;;;;;;;;1.00;1.00;;;;;20.25;100.00;101933.19;5097570;27;48119;-73
2023/08/20 04:27:58;;;;;;;;;1.67;1.67;;;;;20.27;100.00;101935.81;5079302;27;53852;-73
2023/08/20 04:30:23;;;;;;;;;2.00;2.00;;;;;20.25;100.00;101937.75;5090435;27;45361;-73
2023/08/20 04:32:48;;;;;;;;;2.00;2.00;;;;;20.24;100.00;101923.44;5089347;27;45573;-73
2023/08/20 04:35:14;;;;;;;;;3.00;2.00;;;;;20.28;100.00;101932.19;5090561;27;45411;-73
2023/08/20 04:37:39;;;;;;;;;2.00;2.00;;;;;20.22;100.00;101929.91;5078424;27;52258;-73
2023/08/20 04:40:05;;;;;;;;;3.00;2.00;;;;;20.26;100.00;101937.66;5088786;27;45505;-73
2023/08/20 04:42:31;;;;;;;;;2.00;1.00;;;;;20.16;100.00;101919.53;5092010;27;45403;-73
2023/08/20 04:44:57;;;;;;;;;2.67;1.33;;;;;20.22;100.00;101933.41;5082966;27;45523;-73
2023/08/20 04:47:22;;;;;;;;;2.00;1.00;;;;;20.16;100.00;101928.47;5092420;27;46252;-74
2023/08/20 04:49:47;;;;;;;;;1.00;1.00;;;;;20.14;100.00;101925.03;5063680;27;45521;-73
2023/08/20 04:52:13;;;;;;;;;2.67;1.00;;;;;20.18;100.00;101939.13;5075224;27;45299;-74
2023/08/20 04:54:38;;;;;;;;;2.00;2.00;;;;;20.16;100.00;101936.53;5082919;27;45319;-73
2023/08/20 04:57:03;;;;;;;;;2.00;2.00;;;;;20.09;100.00;101929.84;5078637;27;45430;-73
2023/08/20 04:59:29;;;;;;;;;4.00;1.33;;;;;20.10;100.00;101931.59;5071248;27;45865;-73
2023/08/20 05:01:54;;;;;;;;;2.33;2.00;;;;;20.09;100.00;101945.97;5088731;27;45254;-73
2023/08/20 05:04:19;;;;;;;;;1.67;1.00;;;;;20.13;100.00;101960.06;5087624;27;45451;-73
2023/08/20 05:06:45;;;;;;;;;1.67;1.67;;;;;20.13;100.00;101949.31;5083380;27;46029;-73
2023/08/20 05:09:10;;;;;;;;;2.67;2.00;;;;;20.13;100.00;101950.19;5086896;27;45283;-73
2023/08/20 05:11:36;;;;;;;;;3.67;2.00;;;;;20.14;100.00;101953.72;5101923;27;45480;-73
2023/08/20 05:14:01;;;;;;;;;3.00;1.00;;;;;20.12;100.00;101945.75;5087957;27;45450;-73
2023/08/20 05:16:26;;;;;;;;;2.00;2.00;;;;;20.12;100.00;101950.31;5081399;27;45370;-72
2023/08/20 05:18:52;;;;;;;;;3.33;2.00;;;;;20.05;100.00;101939.13;5074343;27;45414;-72
2023/08/20 05:21:17;;;;;;;;;2.00;2.00;;;;;20.11;100.00;101952.13;5084402;27;45578;-73
2023/08/20 05:23:42;;;;;;;;;2.00;2.00;;;;;20.07;100.00;101942.53;5091103;27;48786;-73
2023/08/20 05:26:08;;;;;;;;;4.00;2.33;;;;;20.16;100.00;101951.78;5083593;27;45317;-73
2023/08/20 05:28:34;;;;;;;;;2.00;2.00;;;;;20.12;100.00;101953.81;5100652;27;51437;-73
2023/08/20 05:30:59;;;;;;;;;2.00;2.00;;;;;20.19;100.00;101959.63;5097832;27;45339;-73
2023/08/20 05:33:25;;;;;;;;;1.33;1.33;;;;;20.20;100.00;101956.00;5067739;28;45502;-73
2023/08/20 05:35:50;;;;;;;;;4.00;1.00;;;;;20.22;100.00;101954.91;5085308;27;45337;-73
2023/08/20 05:38:16;;;;;;;;;3.00;2.00;;;;;20.21;100.00;101949.66;5082704;27;45288;-73
2023/08/20 05:40:42;;;;;;;;;2.00;1.67;;;;;20.26;100.00;101960.94;5071048;27;45466;-73
2023/08/20 05:43:08;;;;;;;;;3.33;3.00;;;;;20.31;100.00;101964.22;5081568;27;45257;-73
2023/08/20 05:45:33;;;;;;;;;2.00;2.00;;;;;20.31;100.00;101955.28;5090967;27;45480;-73
2023/08/20 05:47:58;;;;;;;;;3.00;2.67;;;;;20.45;100.00;101965.94;5080911;28;45614;-74
2023/08/20 05:50:24;;;;;;;;;5.33;3.67;;;;;20.50;100.00;101961.97;5081276;27;45427;-74
2023/08/20 05:52:49;;;;;;;;;3.00;2.00;;;;;20.57;100.00;101976.69;5081480;27;45568;-74
2023/08/20 05:55:15;;;;;;;;;2.00;2.00;;;;;20.57;100.00;101968.63;5090616;27;46305;-74
2023/08/20 05:57:42;;;;;;;;;5.00;4.00;;;;;20.70;100.00;101969.47;5096394;27;45739;-74
2023/08/20 06:00:09;;;;;;;;;2.00;2.00;;;;;20.75;100.00;101975.38;5080554;27;45384;-74
2023/08/20 06:02:34;;;;;;;;;2.00;2.00;;;;;20.83;100.00;101974.84;5098524;27;45309;-74
2023/08/20 06:04:59;;;;;;;;;2.67;1.00;;;;;20.86;100.00;101979.13;5093347;27;45350;-74
2023/08/20 06:07:25;;;;;;;;;3.00;2.67;;;;;20.86;100.00;101971.94;5086706;27;45403;-74
2023/08/20 06:09:50;;;;;;;;;3.67;1.67;;;;;20.94;100.00;101987.53;5078713;27;45609;-74
2023/08/20 06:12:16;;;;;;;;;2.00;2.00;;;;;20.84;100.00;101967.63;5093309;27;47279;-74
2023/08/20 06:14:42;;;;;;;;;3.33;2.00;;;;;20.89;100.00;101969.00;5091731;27;45612;-74
2023/08/20 06:17:07;;;;;;;;;4.00;2.00;;;;;20.95;100.00;101971.25;5081643;27;45387;-73
2023/08/20 06:19:32;;;;;;;;;2.33;2.33;;;;;21.00;100.00;101979.00;5069672;27;45445;-73
2023/08/20 06:21:58;;;;;;;;;2.67;2.67;;;;;21.11;100.00;101987.19;5065615;27;54586;-74
2023/08/20 06:24:23;;;;;;;;;3.00;3.00;;;;;21.15;100.00;101980.63;5080820;27;46806;-74
2023/08/20 06:26:49;;;;;;;;;5.33;3.00;;;;;21.17;100.00;101976.84;5068740;27;45339;-74
2023/08/20 06:29:14;;;;;;;;;3.00;3.00;;;;;21.27;100.00;101991.34;5085334;27;45709;-73
2023/08/20 06:31:40;;;;;;;;;3.67;2.00;;;;;21.26;100.00;101981.56;5080716;27;45457;-74
2023/08/20 06:34:05;;;;;;;;;2.00;2.00;;;;;21.38;100.00;101987.00;5081180;27;46785;-74
2023/08/20 06:36:31;;;;;;;;;2.00;2.00;;;;;21.39;98.70;101981.53;5081022;27;45395;-74
2023/08/20 06:38:56;;;;;;;;;4.00;4.00;;;;;21.47;97.88;101992.56;5081408;27;45359;-75
2023/08/20 06:41:22;;;;;;;;;4.67;2.33;;;;;21.43;100.00;101974.09;5089620;27;46543;-74
2023/08/20 06:43:48;;;;;;;;;4.00;4.00;;;;;21.55;99.23;101990.19;5095374;27;45442;-74
2023/08/20 06:46:13;;;;;;;;;3.00;2.00;;;;;21.63;98.81;101990.44;5079503;27;51216;-73
2023/08/20 06:48:38;;;;;;;;;5.00;3.00;;;;;21.67;97.40;101991.09;5081405;27;45490;-75
2023/08/20 06:51:15;;;;;;;;;4.00;3.00;;;;;21.71;99.57;101988.06;5081495;27;45508;-75
2023/08/20 06:53:41;;;;;;;;;2.67;2.33;;;;;21.77;98.93;101990.28;5098488;27;46098;-74
2023/08/20 06:56:08;;;;;;;;;3.00;3.00;;;;;21.86;96.41;101990.59;5087531;27;45439;-74
2023/08/20 06:58:34;;;;;;;;;3.00;3.00;;;;;21.92;99.81;101996.41;5080430;27;45423;-74
2023/08/20 07:01:07;;;;;;;;;4.00;4.00;;;;;21.98;97.38;101992.38;5081096;27;45473;-74
2023/08/20 07:03:43;;;;;;;;;3.00;3.00;;;;;21.95;97.55;101980.00;5077958;27;46157;-74
2023/08/20 07:06:10;;;;;;;;;3.00;3.00;;;;;22.07;100.00;101997.91;5089373;27;45457;-73
2023/08/20 07:08:36;;;;;;;;;4.00;3.00;;;;;22.11;99.04;101998.53;5089734;27;45295;-74
2023/08/20 07:11:02;;;;;;;;;3.67;2.67;;;;;22.20;99.99;101998.69;5094863;27;45482;-74
2023/08/20 07:13:27;;;;;;;;;4.00;4.00;;;;;22.26;98.96;102008.13;5081530;27;46285;-74
2023/08/20 07:15:52;;;;;;;;;2.33;2.33;;;;;22.32;96.38;101997.75;5081433;27;45462;-74
2023/08/20 07:18:18;;;;;;;;;4.00;4.00;;;;;22.41;95.42;102001.56;5083572;27;45570;-74
2023/08/20 07:20:43;;;;;;;;;4.33;3.33;;;;;22.51;92.88;102007.94;5080466;27;45565;-74
2023/08/20 07:23:10;;;;;;;;;3.33;3.00;;;;;22.61;92.62;102000.03;5086269;27;45312;-74
2023/08/20 07:25:40;;;;;;;;;5.00;3.00;;;;;22.72;91.16;102011.69;5082036;27;45459;-74
2023/08/20 07:28:06;;;;;;;;;5.00;4.00;;;;;22.67;91.38;101986.09;5083300;27;45280;-74
2023/08/20 07:30:32;;;;;;;;;4.67;3.67;;;;;22.89;89.90;102004.97;5091437;27;45498;-73
2023/08/20 07:32:57;;;;;;;;;5.67;3.00;;;;;22.99;89.38;102003.25;5083129;27;45483;-75
2023/08/20 07:35:23;;;;;;;;;4.00;4.00;;;;;23.09;88.05;102006.06;5087568;27;45393;-75
2023/08/20 07:37:49;;;;;;;;;4.00;4.00;;;;;23.14;86.77;101993.91;5078804;28;45350;-74
2023/08/20 07:40:14;;;;;;;;;4.00;2.00;;;;;23.24;87.85;101996.72;5094248;27;45430;-75
2023/08/20 07:42:43;;;;;;;;;2.33;2.33;;;;;23.35;88.78;101994.00;5085406;27;51869;-75
2023/08/20 07:45:09;;;;;;;;;2.00;2.00;;;;;23.50;89.49;101991.91;5086652;27;45445;-74
2023/08/20 07:47:36;;;;;;;;;4.33;4.00;;;;;23.60;87.33;101995.56;5081363;27;45422;-75
2023/08/20 07:50:01;;;;;;;;;2.33;2.33;;;;;23.70;86.47;101993.81;5088008;27;45296;-75
2023/08/20 07:52:27;;;;;;;;;7.00;4.00;;;;;23.89;84.43;101995.88;5085145;27;46637;-75
2023/08/20 07:54:52;;;;;;;;;3.00;3.00;;;;;23.88;83.83;101981.50;5089712;27;45376;-74
2023/08/20 07:57:17;;;;;;;;;2.00;2.00;;;;;24.14;83.05;102003.63;5076522;27;45340;-74
2023/08/20 07:59:43;;;;;;;;;3.33;2.67;;;;;24.27;84.49;102009.72;5089894;27;45442;-74
2023/08/20 08:02:08;;;;;;;;;7.00;5.33;;;;;24.25;81.22;101979.22;5071968;27;51415;-74
2023/08/20 08:04:34;;;;;;;;;4.00;4.00;;;;;24.43;82.01;101990.31;5094985;27;45773;-75
2023/08/20 08:07:00;;;;;;;;;6.33;4.00;;;;;24.56;80.91;101994.53;5088896;27;45292;-75
2023/08/20 08:09:30;;;;;;;;;3.00;3.00;;;;;24.58;78.93;101997.09;5080370;27;45545;-75
2023/08/20 08:11:57;;;;;;;;;4.67;4.00;;;;;24.71;81.10;101993.16;5072924;27;47036;-74
2023/08/20 08:14:22;;;;;;;;;3.33;3.00;;;;;24.84;79.07;101999.25;5061738;28;45316;-75
2023/08/20 08:16:48;;;;;;;;;4.00;4.00;;;;;25.02;80.24;101999.47;5076815;27;45485;-75
2023/08/20 08:19:14;;;;;;;;;4.00;4.00;;;;;25.21;81.79;102006.81;5088023;27;45534;-75
2023/08/20 08:21:39;;;;;;;;;4.67;4.67;;;;;25.28;80.99;102000.72;5076139;27;45399;-75
2023/08/20 08:24:05;;;;;;;;;4.00;3.00;;;;;25.36;78.18;101984.63;5070607;28;45518;-75
2023/08/20 08:26:31;;;;;;;;;4.33;4.33;;;;;25.65;82.32;102006.41;5066469;27;45435;-75
2023/08/20 08:28:56;;;;;;;;;4.67;4.67;;;;;25.76;76.96;102016.22;5080440;27;45513;-74
2023/08/20 08:31:23;;;;;;;;;3.00;3.00;;;;;25.90;78.92;102024.81;5067579;27;46563;-74
2023/08/20 08:33:48;;;;;;;;;6.00;4.33;;;;;26.06;75.47;102023.38;5089741;27;45283;-75
2023/08/20 08:36:15;;;;;;;;;4.67;4.00;;;;;26.01;75.90;101999.44;5077047;27;45326;-74
2023/08/20 08:38:40;;;;;;;;;4.00;4.00;;;;;26.23;73.26;102023.56;5090905;27;45373;-74
2023/08/20 08:41:11;;;;;;;;;4.67;4.67;;;;;26.38;74.76;102029.38;5087635;27;46726;-74
2023/08/20 08:43:38;;;;;;;;;5.00;4.00;;;;;26.48;72.84;102018.50;5077220;28;45374;-74
2023/08/20 08:46:07;;;;;;;;;4.00;4.00;;;;;26.61;75.11;102019.06;5091380;27;45285;-74
2023/08/20 08:48:34;;;;;;;;;3.00;3.00;;;;;26.63;73.17;102007.06;5077651;27;45385;-74
2023/08/20 08:51:01;;;;;;;;;5.33;5.33;;;;;26.85;70.80;102024.88;5074057;27;47628;-74
2023/08/20 08:53:26;;;;;;;;;4.67;3.00;;;;;26.92;71.03;102009.72;5079154;27;45382;-74
2023/08/20 08:55:52;;;;;;;;;5.00;5.00;;;;;27.10;71.62;102017.91;5085598;27;45652;-74
2023/08/20 08:58:17;;;;;;;;;4.67;4.00;;;;;27.34;75.05;102020.97;5067000;27;45342;-75
2023/08/20 09:00:42;;;;;;;;;5.33;3.67;;;;;27.40;68.22;102014.91;5090011;27;53902;-74
2023/08/20 09:03:08;;;;;;;;;7.00;4.00;;;;;27.20;68.35;101981.56;5086116;27;45395;-74
2023/08/20 09:05:48;;;;;;;;;4.67;4.67;;;;;27.56;69.32;102011.53;5095653;27;45479;-75
2023/08/20 09:08:27;;;;;;;;;4.00;4.00;;;;;27.67;71.73;102006.75;5066064;28;45509;-74
2023/08/20 09:10:55;;;;;;;;;5.00;3.33;;;;;27.77;69.63;101990.38;5083499;27;46839;-74
2023/08/20 09:13:24;;;;;;;;;5.00;4.33;;;;;27.94;68.94;101993.06;5083433;27;45202;-75
2023/08/20 09:15:53;;;;;;;;;5.00;4.00;;;;;28.04;69.88;101987.59;5099012;27;45390;-75
2023/08/20 09:18:19;;;;;;;;;5.00;4.33;;;;;28.22;71.50;101993.00;5090621;27;45301;-75
2023/08/20 09:20:49;;;;;;;;;5.33;5.33;;;;;28.50;68.47;101999.19;5090278;27;45456;-74
2023/08/20 09:23:14;;;;;;;;;8.67;5.00;;;;;28.53;65.26;101994.28;5090566;27;45519;-74
2023/08/20 09:25:40;;;;;;;;;4.00;3.00;;;;;28.48;69.21;101979.44;5085584;27;45351;-75
2023/08/20 09:28:06;;;;;;;;;3.00;3.00;;;;;28.57;67.38;101986.63;5074609;28;45510;-74
2023/08/20 09:30:32;;;;;;;;;2.33;2.33;;;;;28.70;68.74;101987.06;5068011;28;45561;-74
2023/08/20 09:33:10;;;;;;;;;5.00;5.00;;;;;28.82;68.97;101988.53;5081805;27;45266;-74
2023/08/20 09:35:36;;;;;;;;;4.33;4.33;;;;;29.03;69.12;101977.19;5087436;27;45352;-74
2023/08/20 09:38:03;;;;;;;;;2.67;2.00;;;;;29.16;65.12;101974.88;5091576;27;45222;-74
2023/08/20 09:40:29;;;;;;;;;5.00;4.00;;;;;29.30;66.59;101979.72;5081113;28;45462;-74
2023/08/20 09:42:56;;;;;;;;;3.00;3.00;;;;;29.35;67.27;101975.47;5084852;27;45302;-74
2023/08/20 09:45:24;;;;;;;;;3.67;3.67;;;;;29.50;63.51;101989.34;5090298;27;45320;-74
2023/08/20 09:47:55;;;;;;;;;5.00;4.00;;;;;29.52;64.63;101979.09;5085470;27;45459;-74
2023/08/20 09:50:22;;;;;;;;;4.67;4.67;;;;;29.44;63.52;101990.00;5086087;27;45804;-74
2023/08/20 09:52:57;;;;;;;;;5.33;4.33;;;;;29.33;62.20;101982.97;5083031;27;45340;-74
2023/08/20 09:55:28;;;;;;;;;5.00;4.33;;;;;29.43;63.18;101989.16;5085869;27;45427;-74
2023/08/20 09:57:53;;;;;;;;;3.33;3.33;;;;;29.51;65.58;101980.16;5075000;28;45637;-74
2023/08/20 10:00:20;;;;;;;;;4.00;4.00;;;;;29.50;61.11;101983.88;5083715;27;45281;-74
2023/08/20 10:02:47;;;;;;;;;6.67;4.00;;;;;29.31;61.91;101967.81;5090657;27;45394;-74
2023/08/20 10:05:14;;;;;;;;;5.00;5.00;;;;;29.32;64.33;101988.59;5072854;27;45618;-74
2023/08/20 10:07:39;;;;;;;;;5.00;5.00;;;;;29.14;61.64;101972.31;5081987;27;45307;-75
2023/08/20 10:10:07;;;;;;;;;5.00;3.33;;;;;29.18;66.25;101986.47;5081846;27;46668;-75
2023/08/20 10:12:33;;;;;;;;;3.67;3.67;;;;;29.17;63.86;101988.34;5080524;28;45279;-74
2023/08/20 10:14:59;;;;;;;;;7.00;4.00;;;;;29.29;67.07;101981.59;5081382;27;45390;-74
2023/08/20 10:17:25;;;;;;;;;4.67;4.00;;;;;29.44;65.58;101981.84;5088249;27;45455;-74
2023/08/20 10:19:52;;;;;;;;;5.00;4.67;;;;;29.38;64.35;101963.41;5087475;27;46033;-74
2023/08/20 10:22:18;;;;;;;;;3.67;3.33;;;;;29.59;61.33;101974.69;5075476;27;45447;-74
2023/08/20 10:24:52;;;;;;;;;3.67;3.00;;;;;29.69;61.40;101975.41;5069038;27;45250;-74
2023/08/20 10:27:31;;;;;;;;;3.67;3.67;;;;;29.78;65.13;101970.78;5082488;27;45453;-74
2023/08/20 10:29:57;;;;;;;;;5.00;5.00;;;;;29.86;62.14;101971.72;5080563;27;46332;-74
2023/08/20 10:32:58;;;;;;;;;3.00;3.00;;;;;29.90;61.48;101974.94;5089084;27;45369;-75
2023/08/20 10:35:29;;;;;;;;;3.00;3.00;;;;;30.01;66.54;101969.13;5032906;28;45680;-74
2023/08/20 10:38:03;;;;;;;;;4.00;4.00;;;;;30.07;62.79;101964.91;5088112;27;45367;-74
2023/08/20 10:40:55;;;;;;;;;4.33;3.33;;;;;30.22;61.05;101972.22;5081826;27;45563;-74
2023/08/20 10:43:27;;;;;;;;;3.00;3.00;;;;;30.26;60.41;101961.81;5062962;27;45530;-74
2023/08/20 10:46:23;;;;;;;;;5.67;4.00;;;;;30.15;57.95;101957.53;5090779;27;45488;-74
2023/08/20 10:48:53;;;;;;;;;3.00;3.00;;;;;30.15;60.17;101952.09;5059086;27;45345;-74
2023/08/20 10:51:27;;;;;;;;;5.00;3.67;;;;;30.20;61.41;101957.88;5068483;27;46863;-74
2023/08/20 10:54:04;;;;;;;;;4.00;4.00;;;;;30.20;58.75;101962.50;5082809;27;45398;-74
2023/08/20 10:56:54;;;;;;;;;3.33;3.33;;;;;30.23;62.30;101956.69;5073895;27;45417;-74
2023/08/20 10:59:20;;;;;;;;;3.33;3.33;;;;;30.16;62.40;101961.13;5078930;27;45351;-74
2023/08/20 11:01:48;;;;;;;;;8.33;4.00;;;;;29.99;60.66;101954.81;5088935;27;45467;-73
2023/08/20 11:04:20;;;;;;;;;3.67;3.67;;;;;29.96;61.87;101961.47;5072252;27;45600;-75
2023/08/20 11:06:46;;;;;;;;;3.67;3.67;;;;;30.04;64.00;101959.78;5071619;28;45418;-74
2023/08/20 11:09:12;;;;;;;;;1.67;1.67;;;;;30.18;63.00;101950.88;5079191;27;45451;-74
2023/08/20 11:11:40;;;;;;;;;4.67;3.67;;;;;30.20;61.19;101955.13;5085146;27;45569;-73
2023/08/20 11:14:09;;;;;;;;;3.00;3.00;;;;;30.16;61.00;101952.94;5072855;28;45351;-75
2023/08/20 11:16:36;;;;;;;;;6.00;4.33;;;;;30.18;60.20;101957.19;5066407;27;45833;-75
2023/08/20 11:19:05;;;;;;;;;3.00;3.00;;;;;30.18;63.13;101951.75;5090917;27;45730;-75
2023/08/20 11:21:31;;;;;;;;;3.00;3.00;;;;;30.17;60.93;101950.03;5081444;27;45992;-76